N104VA KCRW-KMYR
Flight info
| Callsign | N104VA |
|---|---|
| Flight time | N/A |
| Altitude | 41000 |
| Route | BKW GSO/N0492F400 FLO |
| Aircraft | C750/M-SBDE3FGHRWXY/S |
Departure
| Time | N/A |
|---|---|
| Airport | Yeager Airport (KCRW) |
Arrival
| Time | 2026-04-26 11:51 |
|---|---|
| Airport | Myrtle Beach International Airport (KMYR) |
| Time | Latitude | Longitude | Altitude | Speed | Heading |
|---|---|---|---|---|---|
| 2026-04-26 11:29 | 34.79921 | -79.75539 | 37309 ft | 463 kts | 176° |
| 2026-04-26 11:30 | 34.76722 | -79.74979 | 36666 ft | 460 kts | 176° |
| 2026-04-26 11:30 | 34.74596 | -79.74609 | 36227 ft | 458 kts | 176° |
| 2026-04-26 11:30 | 34.70410 | -79.73884 | 35376 ft | 454 kts | 176° |
| 2026-04-26 11:30 | 34.67489 | -79.73370 | 34769 ft | 451 kts | 176° |
| 2026-04-26 11:31 | 34.64397 | -79.72835 | 34126 ft | 448 kts | 176° |
| 2026-04-26 11:31 | 34.61303 | -79.72294 | 33494 ft | 444 kts | 175° |
| 2026-04-26 11:31 | 34.58275 | -79.71766 | 32853 ft | 441 kts | 176° |
| 2026-04-26 11:31 | 34.55215 | -79.71238 | 32214 ft | 442 kts | 175° |
| 2026-04-26 11:32 | 34.52190 | -79.70713 | 31591 ft | 444 kts | 175° |
| 2026-04-26 11:32 | 34.49115 | -79.70178 | 30963 ft | 445 kts | 175° |
| 2026-04-26 11:32 | 34.46064 | -79.69649 | 30334 ft | 445 kts | 175° |
| 2026-04-26 11:32 | 34.42984 | -79.69117 | 29680 ft | 445 kts | 175° |
| 2026-04-26 11:33 | 34.39912 | -79.68585 | 29017 ft | 445 kts | 175° |
| 2026-04-26 11:33 | 34.36877 | -79.68059 | 28371 ft | 445 kts | 175° |
| 2026-04-26 11:33 | 34.33793 | -79.67526 | 27712 ft | 444 kts | 175° |
| 2026-04-26 11:33 | 34.30757 | -79.67003 | 27062 ft | 443 kts | 175° |
| 2026-04-26 11:34 | 34.27726 | -79.66409 | 26404 ft | 449 kts | 172° |
| 2026-04-26 11:34 | 34.24683 | -79.65345 | 25770 ft | 463 kts | 163° |
| 2026-04-26 11:34 | 34.21692 | -79.63772 | 25134 ft | 474 kts | 157° |
| 2026-04-26 11:34 | 34.18830 | -79.61783 | 24500 ft | 481 kts | 151° |
| 2026-04-26 11:35 | 34.15964 | -79.59731 | 23858 ft | 474 kts | 153° |
| 2026-04-26 11:35 | 34.13123 | -79.57695 | 23216 ft | 471 kts | 152° |
| 2026-04-26 11:35 | 34.10344 | -79.55673 | 22590 ft | 466 kts | 152° |
| 2026-04-26 11:35 | 34.08503 | -79.54342 | 22175 ft | 464 kts | 152° |
| 2026-04-26 11:36 | 34.04862 | -79.51709 | 21350 ft | 458 kts | 152° |
| 2026-04-26 11:36 | 34.02122 | -79.49742 | 20721 ft | 452 kts | 152° |
| 2026-04-26 11:36 | 33.99440 | -79.47825 | 20098 ft | 446 kts | 152° |
| 2026-04-26 11:36 | 33.96800 | -79.45946 | 19484 ft | 442 kts | 152° |
| 2026-04-26 11:37 | 33.94155 | -79.44083 | 18864 ft | 437 kts | 152° |
| 2026-04-26 11:37 | 33.91563 | -79.42268 | 18254 ft | 434 kts | 152° |
| 2026-04-26 11:37 | 33.88974 | -79.40459 | 17642 ft | 430 kts | 152° |
| 2026-04-26 11:37 | 33.86373 | -79.38650 | 17026 ft | 427 kts | 152° |
| 2026-04-26 11:38 | 33.83815 | -79.36876 | 16425 ft | 424 kts | 152° |
| 2026-04-26 11:38 | 33.81271 | -79.35119 | 15823 ft | 421 kts | 152° |
| 2026-04-26 11:38 | 33.78727 | -79.33366 | 15213 ft | 417 kts | 152° |
| 2026-04-26 11:38 | 33.76191 | -79.31631 | 14604 ft | 415 kts | 152° |
| 2026-04-26 11:39 | 33.73705 | -79.29936 | 13990 ft | 412 kts | 152° |
| 2026-04-26 11:39 | 33.71221 | -79.28252 | 13372 ft | 409 kts | 152° |
| 2026-04-26 11:39 | 33.68755 | -79.26583 | 12761 ft | 407 kts | 152° |
| 2026-04-26 11:39 | 33.66298 | -79.24915 | 12148 ft | 404 kts | 152° |
| 2026-04-26 11:40 | 33.63856 | -79.23260 | 11475 ft | 402 kts | 152° |
| 2026-04-26 11:40 | 33.61529 | -79.21687 | 10741 ft | 378 kts | 152° |
| 2026-04-26 11:40 | 33.59309 | -79.20182 | 9949 ft | 357 kts | 152° |
| 2026-04-26 11:40 | 33.57224 | -79.18764 | 9085 ft | 327 kts | 152° |
| 2026-04-26 11:41 | 33.55334 | -79.17472 | 8312 ft | 304 kts | 152° |
| 2026-04-26 11:42 | 33.47176 | -79.11809 | 4522 ft | 242 kts | 152° |
| 2026-04-26 11:43 | 33.45902 | -79.10907 | 3861 ft | 238 kts | 151° |
| 2026-04-26 11:43 | 33.44626 | -79.09698 | 3141 ft | 237 kts | 136° |
| 2026-04-26 11:43 | 33.43654 | -79.08145 | 2387 ft | 235 kts | 118° |
| 2026-04-26 11:43 | 33.43239 | -79.06299 | 1708 ft | 229 kts | 95° |
| 2026-04-26 11:44 | 33.43325 | -79.04507 | 1558 ft | 200 kts | 78° |
| 2026-04-26 11:44 | 33.43749 | -79.03036 | 1562 ft | 175 kts | 69° |
| 2026-04-26 11:44 | 33.44207 | -79.01651 | 1574 ft | 179 kts | 69° |
| 2026-04-26 11:44 | 33.44670 | -79.00266 | 1599 ft | 178 kts | 69° |
| 2026-04-26 11:45 | 33.45138 | -78.98874 | 1584 ft | 184 kts | 69° |
| 2026-04-26 11:45 | 33.45623 | -78.97433 | 1576 ft | 187 kts | 69° |
| 2026-04-26 11:45 | 33.46112 | -78.95985 | 1569 ft | 188 kts | 69° |
| 2026-04-26 11:45 | 33.46598 | -78.94546 | 1568 ft | 187 kts | 69° |
| 2026-04-26 11:46 | 33.47238 | -78.93181 | 1560 ft | 185 kts | 52° |
| 2026-04-26 11:46 | 33.48147 | -78.92136 | 1563 ft | 180 kts | 41° |
| 2026-04-26 11:46 | 33.49061 | -78.91205 | 1581 ft | 171 kts | 41° |
| 2026-04-26 11:46 | 33.49965 | -78.90284 | 1570 ft | 170 kts | 41° |
| 2026-04-26 11:47 | 33.50874 | -78.89365 | 1569 ft | 169 kts | 41° |
| 2026-04-26 11:47 | 33.51860 | -78.88625 | 1551 ft | 169 kts | 17° |
| 2026-04-26 11:47 | 33.53009 | -78.88723 | 1565 ft | 166 kts | 337° |
| 2026-04-26 11:47 | 33.54049 | -78.89220 | 1552 ft | 156 kts | 341° |
| 2026-04-26 11:48 | 33.55056 | -78.89565 | 1547 ft | 146 kts | 344° |
| 2026-04-26 11:48 | 33.56029 | -78.89846 | 1552 ft | 139 kts | 346° |
| 2026-04-26 11:48 | 33.56963 | -78.90093 | 1556 ft | 136 kts | 347° |
| 2026-04-26 11:48 | 33.57890 | -78.90330 | 1567 ft | 136 kts | 346° |
| 2026-04-26 11:49 | 33.58822 | -78.90565 | 1566 ft | 138 kts | 347° |
| 2026-04-26 11:49 | 33.59768 | -78.90803 | 1392 ft | 136 kts | 348° |
| 2026-04-26 11:49 | 33.60670 | -78.91024 | 1210 ft | 129 kts | 348° |
| 2026-04-26 11:49 | 33.61549 | -78.91254 | 989 ft | 127 kts | 348° |
| 2026-04-26 11:50 | 33.62395 | -78.91466 | 786 ft | 124 kts | 349° |
| 2026-04-26 11:50 | 33.63250 | -78.91656 | 612 ft | 121 kts | 350° |
| 2026-04-26 11:50 | 33.64086 | -78.91871 | 476 ft | 125 kts | 349° |
| 2026-04-26 11:50 | 33.64957 | -78.92085 | 364 ft | 127 kts | 350° |
| 2026-04-26 11:51 | 33.65810 | -78.92305 | 218 ft | 123 kts | 349° |
| 2026-04-26 11:51 | 33.66632 | -78.92500 | 58 ft | 120 kts | 350° |
| 2026-04-26 11:51 | 33.67409 | -78.92692 | 26 ft | 99 kts | 347° |
| 2026-04-26 11:51 | 33.67768 | -78.92778 | 26 ft | 41 kts | 348° |
| 2026-04-26 11:52 | 33.68015 | -78.92845 | 26 ft | 29 kts | 346° |
| 2026-04-26 11:52 | 33.68083 | -78.92912 | 26 ft | 18 kts | 267° |